Axtell, UT (84621)

5:40 AM MDT on July 29, 2016 (GMT -0600)
Salina-Northeast Fields | | Change Station
Active Advisory: Fire Weather Warning Active Notice: Record Report

Elev 5174 ft 39.00 °N, 111.83 °W | Updated 24 minutes ago

Clear
Clear
62.4 °F
Feels Like 62.4 °F
N
1.0
Wind Variable Wind from NE
Gusts 3.0 mph

Today
High -- | Low -- °F
--% Chance of Precip.
Yesterday
High -- | Low -- °F
Precip. -- in
Pressure 29.78 in
Visibility 10.0 miles
Clouds Clear
Dew Point 30 °F
Humidity 30%
Rainfall 0.00 in
Snow Depth Not available.
6:25 AM 8:41 PM
Waning Crescent, 22% visible
METAR KPUC 291053Z AUTO 35008KT 10SM CLR 22/M02 A3015 RMK AO2 SLP084 T02171017
Pressure 29.78 in
Visibility 10.0 miles
Clouds Clear
Dew Point 30 °F
Humidity 30%
Rainfall 0.00 in
Snow Depth Not available.
6:25 AM 8:41 PM
Waning Crescent, 22% visible
METAR KPUC 291053Z AUTO 35008KT 10SM CLR 22/M02 A3015 RMK AO2 SLP084 T02171017

10-Day Weather Forecast

Almanac

Astronomy

Jul. 29, 2016 Rise Set
Actual Time
Civil Twilight
Nautical Twilight
Astronomical Twilight
Moon
Length of Visible Light
Length of Day
Tomorrow will be .
, % of the Moon is Illuminated

Today's Extremes

State Highs State Lows

Community

WunderPhotos

Upload Photos

1,928,315 photos uploaded!

WunderBlog® & News

Nearby

Air Quality

  Air Quality AQ Index Pollutant
Not available.

Snow Depth

Station Depth Elevation

Earthquake Activity

City Distance Mag. Time & Date
Minimum magnitude displayed is 2.5.

Coastal Water Temperatures

Place Temperature

Stations

Nearby Weather Stations

Station Location Temp. Windchill Dew Point Humidity Wind Precip. Elev Updated Type
                   

Watches & Warnings

Fire Weather Warning
Issued: 3:04 AM MDT Jul. 29, 2016 – National Weather Service

... Red flag warning remains in effect from noon today to 10 PM
MDT Saturday for dry thunderstorms and gusty outflow winds for
fire weather zones 492... 493... 495... 497 and 498...

* affected area... fire weather zone 492 central Utah west
desert... fire weather zone 493 central Utah mountains... fire
weather zone 495 color Country West desert... fire weather zone
497 Mojave Desert and fire weather zone 498 Grand Staircase.

* Thunderstorms... isolated to scattered mainly dry thunderstorms
will develop primarily during the afternoon and evening hours
today and Saturday.

* Outflow winds... gusty and erratic winds in excess of 50 mph will
be possible with any storms that develop.

* Impacts... the threat of lightning and gusty winds in addition
to very dry conditions will bring the potential of multiple
new fires and explosive fire growth.

Precautionary/preparedness actions...

A red flag warning means that critical fire weather conditions
are either occurring now... or will shortly. A combination of
strong winds... low relative humidity... and warm temperatures can
contribute to extreme fire behavior.